sensor_id;sensor_type;location;lat;lon;timestamp;P1;durP1;ratioP1;P2;durP2;ratioP2
4202;SDS011;2115;51.038;7.006;2023-08-06T00:00:40;629.07;;;302.67;;
4202;SDS011;2115;51.038;7.006;2023-08-06T00:03:06;629.20;;;290.43;;
4202;SDS011;2115;51.038;7.006;2023-08-06T00:05:31;625.07;;;282.53;;
4202;SDS011;2115;51.038;7.006;2023-08-06T00:07:57;630.40;;;310.77;;
4202;SDS011;2115;51.038;7.006;2023-08-06T00:10:22;629.50;;;304.30;;
4202;SDS011;2115;51.038;7.006;2023-08-06T00:12:48;629.53;;;318.73;;
4202;SDS011;2115;51.038;7.006;2023-08-06T00:15:13;641.30;;;338.97;;
4202;SDS011;2115;51.038;7.006;2023-08-06T00:17:39;634.33;;;305.70;;
4202;SDS011;2115;51.038;7.006;2023-08-06T00:20:05;647.83;;;332.23;;
4202;SDS011;2115;51.038;7.006;2023-08-06T00:22:34;633.40;;;327.27;;
4202;SDS011;2115;51.038;7.006;2023-08-06T00:25:01;629.37;;;303.33;;
4202;SDS011;2115;51.038;7.006;2023-08-06T00:27:26;629.13;;;293.40;;
4202;SDS011;2115;51.038;7.006;2023-08-06T00:29:52;620.27;;;281.67;;
4202;SDS011;2115;51.038;7.006;2023-08-06T00:32:18;628.60;;;294.77;;
4202;SDS011;2115;51.038;7.006;2023-08-06T00:34:44;629.57;;;299.63;;
4202;SDS011;2115;51.038;7.006;2023-08-06T00:37:09;624.87;;;291.80;;
4202;SDS011;2115;51.038;7.006;2023-08-06T00:39:35;631.87;;;322.57;;
4202;SDS011;2115;51.038;7.006;2023-08-06T00:42:00;636.23;;;343.77;;
4202;SDS011;2115;51.038;7.006;2023-08-06T00:44:26;623.43;;;323.87;;
4202;SDS011;2115;51.038;7.006;2023-08-06T00:46:51;626.70;;;317.87;;
4202;SDS011;2115;51.038;7.006;2023-08-06T00:49:16;628.77;;;323.33;;
4202;SDS011;2115;51.038;7.006;2023-08-06T00:51:42;624.30;;;281.50;;
4202;SDS011;2115;51.038;7.006;2023-08-06T00:54:08;625.00;;;282.87;;
4202;SDS011;2115;51.038;7.006;2023-08-06T00:56:34;627.93;;;287.00;;
4202;SDS011;2115;51.038;7.006;2023-08-06T00:59:05;615.37;;;274.37;;
4202;SDS011;2115;51.038;7.006;2023-08-06T01:01:31;620.67;;;281.80;;
4202;SDS011;2115;51.038;7.006;2023-08-06T01:03:56;622.87;;;282.67;;
4202;SDS011;2115;51.038;7.006;2023-08-06T01:06:25;625.77;;;286.60;;
4202;SDS011;2115;51.038;7.006;2023-08-06T01:09:07;628.10;;;271.63;;
4202;SDS011;2115;51.038;7.006;2023-08-06T01:12:09;621.23;;;274.47;;
4202;SDS011;2115;51.038;7.006;2023-08-06T01:17:25;620.10;;;280.70;;
4202;SDS011;2115;51.038;7.006;2023-08-06T01:19:52;634.20;;;294.73;;
4202;SDS011;2115;51.038;7.006;2023-08-06T01:22:17;625.20;;;284.57;;
4202;SDS011;2115;51.038;7.006;2023-08-06T01:24:44;623.17;;;290.57;;
4202;SDS011;2115;51.038;7.006;2023-08-06T01:27:33;626.20;;;287.27;;
4202;SDS011;2115;51.038;7.006;2023-08-06T01:32:35;629.83;;;276.90;;
4202;SDS011;2115;51.038;7.006;2023-08-06T01:35:04;621.00;;;278.23;;
4202;SDS011;2115;51.038;7.006;2023-08-06T01:37:30;630.97;;;291.07;;
4202;SDS011;2115;51.038;7.006;2023-08-06T01:39:56;620.47;;;287.33;;
4202;SDS011;2115;51.038;7.006;2023-08-06T01:42:22;623.45;;;280.05;;
4202;SDS011;2115;51.038;7.006;2023-08-06T01:44:47;628.20;;;274.00;;
4202;SDS011;2115;51.038;7.006;2023-08-06T01:47:13;617.30;;;280.20;;
4202;SDS011;2115;51.038;7.006;2023-08-06T01:49:38;614.37;;;258.67;;
4202;SDS011;2115;51.038;7.006;2023-08-06T01:52:04;616.10;;;277.07;;
4202;SDS011;2115;51.038;7.006;2023-08-06T01:54:30;633.00;;;279.23;;
4202;SDS011;2115;51.038;7.006;2023-08-06T01:56:55;614.97;;;281.23;;
4202;SDS011;2115;51.038;7.006;2023-08-06T01:59:23;618.90;;;262.63;;
4202;SDS011;2115;51.038;7.006;2023-08-06T02:01:49;618.13;;;288.40;;
4202;SDS011;2115;51.038;7.006;2023-08-06T02:04:14;611.47;;;269.93;;
4202;SDS011;2115;51.038;7.006;2023-08-06T02:06:39;627.00;;;286.87;;
4202;SDS011;2115;51.038;7.006;2023-08-06T02:09:05;634.50;;;290.40;;
4202;SDS011;2115;51.038;7.006;2023-08-06T02:11:30;616.30;;;261.57;;
4202;SDS011;2115;51.038;7.006;2023-08-06T02:13:56;617.77;;;280.93;;
4202;SDS011;2115;51.038;7.006;2023-08-06T02:16:21;616.30;;;277.50;;
4202;SDS011;2115;51.038;7.006;2023-08-06T02:18:46;613.63;;;272.73;;
4202;SDS011;2115;51.038;7.006;2023-08-06T02:21:12;610.03;;;274.03;;
4202;SDS011;2115;51.038;7.006;2023-08-06T02:23:37;637.50;;;288.60;;
4202;SDS011;2115;51.038;7.006;2023-08-06T02:26:03;619.63;;;286.13;;
4202;SDS011;2115;51.038;7.006;2023-08-06T02:28:30;616.10;;;283.13;;
4202;SDS011;2115;51.038;7.006;2023-08-06T02:30:55;616.00;;;283.83;;
4202;SDS011;2115;51.038;7.006;2023-08-06T02:33:21;614.80;;;282.43;;
4202;SDS011;2115;51.038;7.006;2023-08-06T02:35:46;611.10;;;268.50;;
4202;SDS011;2115;51.038;7.006;2023-08-06T02:38:12;607.27;;;258.73;;
4202;SDS011;2115;51.038;7.006;2023-08-06T02:40:42;614.73;;;276.00;;
4202;SDS011;2115;51.038;7.006;2023-08-06T02:43:09;624.47;;;288.47;;
4202;SDS011;2115;51.038;7.006;2023-08-06T02:45:35;613.17;;;277.63;;
4202;SDS011;2115;51.038;7.006;2023-08-06T02:48:00;612.87;;;268.00;;
4202;SDS011;2115;51.038;7.006;2023-08-06T02:50:27;619.53;;;289.43;;
4202;SDS011;2115;51.038;7.006;2023-08-06T02:52:52;616.80;;;297.30;;
4202;SDS011;2115;51.038;7.006;2023-08-06T02:55:18;618.60;;;296.23;;
4202;SDS011;2115;51.038;7.006;2023-08-06T02:57:43;621.23;;;296.30;;
4202;SDS011;2115;51.038;7.006;2023-08-06T03:00:08;645.67;;;312.73;;
4202;SDS011;2115;51.038;7.006;2023-08-06T03:02:36;619.10;;;273.43;;
4202;SDS011;2115;51.038;7.006;2023-08-06T03:05:02;626.60;;;276.77;;
4202;SDS011;2115;51.038;7.006;2023-08-06T03:07:28;617.50;;;283.07;;
4202;SDS011;2115;51.038;7.006;2023-08-06T03:09:54;609.27;;;257.73;;
4202;SDS011;2115;51.038;7.006;2023-08-06T03:12:19;613.00;;;269.70;;
4202;SDS011;2115;51.038;7.006;2023-08-06T03:14:45;607.83;;;265.83;;
4202;SDS011;2115;51.038;7.006;2023-08-06T03:17:10;615.10;;;276.67;;
4202;SDS011;2115;51.038;7.006;2023-08-06T03:19:36;610.97;;;261.00;;
4202;SDS011;2115;51.038;7.006;2023-08-06T03:22:01;615.33;;;277.30;;
4202;SDS011;2115;51.038;7.006;2023-08-06T03:24:26;619.87;;;276.83;;
4202;SDS011;2115;51.038;7.006;2023-08-06T03:26:52;608.57;;;271.97;;
4202;SDS011;2115;51.038;7.006;2023-08-06T03:29:17;605.30;;;268.70;;
4202;SDS011;2115;51.038;7.006;2023-08-06T03:31:43;620.23;;;280.67;;
4202;SDS011;2115;51.038;7.006;2023-08-06T03:34:08;631.10;;;286.10;;
4202;SDS011;2115;51.038;7.006;2023-08-06T03:36:34;627.40;;;276.80;;
4202;SDS011;2115;51.038;7.006;2023-08-06T03:38:59;607.47;;;265.23;;
4202;SDS011;2115;51.038;7.006;2023-08-06T03:41:24;610.00;;;273.07;;
4202;SDS011;2115;51.038;7.006;2023-08-06T03:43:50;623.00;;;282.43;;
4202;SDS011;2115;51.038;7.006;2023-08-06T03:46:15;610.73;;;275.57;;
4202;SDS011;2115;51.038;7.006;2023-08-06T03:48:41;613.20;;;270.70;;
4202;SDS011;2115;51.038;7.006;2023-08-06T03:51:06;611.73;;;279.87;;
4202;SDS011;2115;51.038;7.006;2023-08-06T03:53:31;619.80;;;280.13;;
4202;SDS011;2115;51.038;7.006;2023-08-06T03:55:57;663.80;;;269.93;;
4202;SDS011;2115;51.038;7.006;2023-08-06T03:58:25;613.90;;;262.40;;
4202;SDS011;2115;51.038;7.006;2023-08-06T04:00:57;614.57;;;280.77;;
4202;SDS011;2115;51.038;7.006;2023-08-06T04:03:23;606.20;;;277.63;;
4202;SDS011;2115;51.038;7.006;2023-08-06T04:05:49;605.63;;;267.37;;
4202;SDS011;2115;51.038;7.006;2023-08-06T04:08:14;619.13;;;281.93;;
4202;SDS011;2115;51.038;7.006;2023-08-06T04:10:40;621.13;;;280.77;;
4202;SDS011;2115;51.038;7.006;2023-08-06T04:13:06;621.37;;;256.13;;
4202;SDS011;2115;51.038;7.006;2023-08-06T04:15:33;617.07;;;263.17;;
4202;SDS011;2115;51.038;7.006;2023-08-06T04:18:02;617.60;;;268.57;;
4202;SDS011;2115;51.038;7.006;2023-08-06T04:20:27;617.97;;;264.23;;
4202;SDS011;2115;51.038;7.006;2023-08-06T04:22:54;605.07;;;259.57;;
4202;SDS011;2115;51.038;7.006;2023-08-06T04:25:20;610.17;;;274.03;;
4202;SDS011;2115;51.038;7.006;2023-08-06T04:27:46;613.07;;;271.47;;
4202;SDS011;2115;51.038;7.006;2023-08-06T04:30:12;612.33;;;276.30;;
4202;SDS011;2115;51.038;7.006;2023-08-06T04:32:37;615.93;;;270.07;;
4202;SDS011;2115;51.038;7.006;2023-08-06T04:35:04;607.67;;;273.00;;
4202;SDS011;2115;51.038;7.006;2023-08-06T04:37:31;612.80;;;274.33;;
4202;SDS011;2115;51.038;7.006;2023-08-06T04:39:56;624.77;;;280.13;;
4202;SDS011;2115;51.038;7.006;2023-08-06T04:42:22;609.07;;;273.03;;
4202;SDS011;2115;51.038;7.006;2023-08-06T04:44:47;617.40;;;271.57;;
4202;SDS011;2115;51.038;7.006;2023-08-06T04:47:13;605.03;;;250.10;;
4202;SDS011;2115;51.038;7.006;2023-08-06T04:49:38;613.50;;;264.77;;
4202;SDS011;2115;51.038;7.006;2023-08-06T04:52:05;609.10;;;261.27;;
4202;SDS011;2115;51.038;7.006;2023-08-06T04:54:31;605.67;;;277.13;;
4202;SDS011;2115;51.038;7.006;2023-08-06T04:56:57;614.77;;;276.00;;
4202;SDS011;2115;51.038;7.006;2023-08-06T04:59:22;608.40;;;274.13;;
4202;SDS011;2115;51.038;7.006;2023-08-06T05:01:48;606.90;;;267.27;;
4202;SDS011;2115;51.038;7.006;2023-08-06T05:04:13;609.47;;;264.33;;
4202;SDS011;2115;51.038;7.006;2023-08-06T05:06:39;605.03;;;255.87;;
4202;SDS011;2115;51.038;7.006;2023-08-06T05:09:05;602.73;;;270.13;;
4202;SDS011;2115;51.038;7.006;2023-08-06T05:11:31;615.70;;;292.53;;
4202;SDS011;2115;51.038;7.006;2023-08-06T05:13:56;608.77;;;275.27;;
4202;SDS011;2115;51.038;7.006;2023-08-06T05:16:22;596.43;;;248.93;;
4202;SDS011;2115;51.038;7.006;2023-08-06T05:18:51;607.57;;;269.87;;
4202;SDS011;2115;51.038;7.006;2023-08-06T05:21:17;608.93;;;269.93;;
4202;SDS011;2115;51.038;7.006;2023-08-06T05:23:42;612.70;;;266.77;;
4202;SDS011;2115;51.038;7.006;2023-08-06T05:26:08;614.27;;;288.47;;
4202;SDS011;2115;51.038;7.006;2023-08-06T05:28:34;617.63;;;284.43;;
4202;SDS011;2115;51.038;7.006;2023-08-06T05:31:04;606.17;;;261.13;;
4202;SDS011;2115;51.038;7.006;2023-08-06T05:33:30;605.73;;;258.83;;
4202;SDS011;2115;51.038;7.006;2023-08-06T05:35:55;606.77;;;273.87;;
4202;SDS011;2115;51.038;7.006;2023-08-06T05:38:21;609.40;;;265.97;;
4202;SDS011;2115;51.038;7.006;2023-08-06T05:40:46;622.10;;;279.17;;
4202;SDS011;2115;51.038;7.006;2023-08-06T05:43:13;609.27;;;263.93;;
4202;SDS011;2115;51.038;7.006;2023-08-06T05:45:38;604.27;;;252.23;;
4202;SDS011;2115;51.038;7.006;2023-08-06T05:48:04;622.73;;;269.50;;
4202;SDS011;2115;51.038;7.006;2023-08-06T05:50:29;618.53;;;269.33;;
4202;SDS011;2115;51.038;7.006;2023-08-06T05:52:54;605.00;;;269.07;;
4202;SDS011;2115;51.038;7.006;2023-08-06T05:55:20;611.53;;;270.73;;
4202;SDS011;2115;51.038;7.006;2023-08-06T05:57:45;615.63;;;281.70;;
4202;SDS011;2115;51.038;7.006;2023-08-06T06:00:11;608.10;;;254.97;;
4202;SDS011;2115;51.038;7.006;2023-08-06T06:02:37;619.83;;;273.83;;
4202;SDS011;2115;51.038;7.006;2023-08-06T06:05:02;609.83;;;265.77;;
4202;SDS011;2115;51.038;7.006;2023-08-06T06:07:28;608.03;;;280.67;;
4202;SDS011;2115;51.038;7.006;2023-08-06T06:09:53;606.03;;;266.57;;
4202;SDS011;2115;51.038;7.006;2023-08-06T06:12:19;609.67;;;280.20;;
4202;SDS011;2115;51.038;7.006;2023-08-06T06:14:44;612.27;;;288.50;;
4202;SDS011;2115;51.038;7.006;2023-08-06T06:17:10;618.17;;;279.97;;
4202;SDS011;2115;51.038;7.006;2023-08-06T06:19:36;627.67;;;297.80;;
4202;SDS011;2115;51.038;7.006;2023-08-06T06:22:01;609.23;;;300.87;;
4202;SDS011;2115;51.038;7.006;2023-08-06T06:24:26;605.23;;;282.17;;
4202;SDS011;2115;51.038;7.006;2023-08-06T06:26:52;614.27;;;299.17;;
4202;SDS011;2115;51.038;7.006;2023-08-06T06:29:17;606.13;;;282.40;;
4202;SDS011;2115;51.038;7.006;2023-08-06T06:31:43;612.50;;;292.27;;
4202;SDS011;2115;51.038;7.006;2023-08-06T06:34:08;606.37;;;270.17;;
4202;SDS011;2115;51.038;7.006;2023-08-06T06:36:34;610.67;;;267.93;;
4202;SDS011;2115;51.038;7.006;2023-08-06T06:38:59;609.93;;;275.17;;
4202;SDS011;2115;51.038;7.006;2023-08-06T06:41:25;621.00;;;288.15;;
4202;SDS011;2115;51.038;7.006;2023-08-06T06:43:51;617.20;;;284.07;;
4202;SDS011;2115;51.038;7.006;2023-08-06T06:46:16;617.90;;;280.27;;
4202;SDS011;2115;51.038;7.006;2023-08-06T06:48:42;617.73;;;286.93;;
4202;SDS011;2115;51.038;7.006;2023-08-06T06:51:07;626.10;;;291.07;;
4202;SDS011;2115;51.038;7.006;2023-08-06T06:53:33;619.10;;;278.83;;
4202;SDS011;2115;51.038;7.006;2023-08-06T06:56:03;625.23;;;295.07;;
4202;SDS011;2115;51.038;7.006;2023-08-06T06:58:29;631.83;;;308.43;;
4202;SDS011;2115;51.038;7.006;2023-08-06T07:00:58;627.33;;;276.83;;
4202;SDS011;2115;51.038;7.006;2023-08-06T07:03:24;629.70;;;292.05;;
4202;SDS011;2115;51.038;7.006;2023-08-06T07:05:49;636.60;;;302.97;;
4202;SDS011;2115;51.038;7.006;2023-08-06T07:08:15;635.50;;;312.23;;
4202;SDS011;2115;51.038;7.006;2023-08-06T07:10:41;630.63;;;299.77;;
4202;SDS011;2115;51.038;7.006;2023-08-06T07:13:10;644.07;;;317.30;;
4202;SDS011;2115;51.038;7.006;2023-08-06T07:15:36;638.90;;;301.97;;
4202;SDS011;2115;51.038;7.006;2023-08-06T07:18:01;637.07;;;305.63;;
4202;SDS011;2115;51.038;7.006;2023-08-06T07:20:27;629.57;;;301.20;;
4202;SDS011;2115;51.038;7.006;2023-08-06T07:22:56;637.80;;;305.15;;
4202;SDS011;2115;51.038;7.006;2023-08-06T07:25:22;630.27;;;299.30;;
4202;SDS011;2115;51.038;7.006;2023-08-06T07:27:47;633.03;;;297.30;;
4202;SDS011;2115;51.038;7.006;2023-08-06T07:30:13;639.57;;;300.03;;
4202;SDS011;2115;51.038;7.006;2023-08-06T07:32:38;639.67;;;308.80;;
4202;SDS011;2115;51.038;7.006;2023-08-06T07:35:04;649.47;;;319.63;;
4202;SDS011;2115;51.038;7.006;2023-08-06T07:37:30;636.93;;;308.87;;
4202;SDS011;2115;51.038;7.006;2023-08-06T07:39:56;643.07;;;314.70;;
4202;SDS011;2115;51.038;7.006;2023-08-06T07:42:21;651.77;;;315.43;;
4202;SDS011;2115;51.038;7.006;2023-08-06T07:44:51;639.57;;;308.73;;
4202;SDS011;2115;51.038;7.006;2023-08-06T07:47:21;655.83;;;322.93;;
4202;SDS011;2115;51.038;7.006;2023-08-06T07:49:46;640.43;;;315.13;;
4202;SDS011;2115;51.038;7.006;2023-08-06T07:52:13;642.23;;;322.33;;
4202;SDS011;2115;51.038;7.006;2023-08-06T07:54:39;644.07;;;310.13;;
4202;SDS011;2115;51.038;7.006;2023-08-06T07:57:04;649.00;;;319.07;;
4202;SDS011;2115;51.038;7.006;2023-08-06T07:59:30;649.47;;;329.53;;
4202;SDS011;2115;51.038;7.006;2023-08-06T08:01:56;646.53;;;328.90;;
4202;SDS011;2115;51.038;7.006;2023-08-06T08:04:23;648.60;;;307.17;;
4202;SDS011;2115;51.038;7.006;2023-08-06T08:06:49;657.87;;;336.30;;
4202;SDS011;2115;51.038;7.006;2023-08-06T08:09:14;663.80;;;338.87;;
4202;SDS011;2115;51.038;7.006;2023-08-06T08:11:42;658.17;;;336.13;;
4202;SDS011;2115;51.038;7.006;2023-08-06T08:14:08;655.10;;;329.40;;
4202;SDS011;2115;51.038;7.006;2023-08-06T08:16:33;682.00;;;362.17;;
4202;SDS011;2115;51.038;7.006;2023-08-06T08:18:59;658.47;;;349.87;;
4202;SDS011;2115;51.038;7.006;2023-08-06T08:21:25;661.27;;;345.40;;
4202;SDS011;2115;51.038;7.006;2023-08-06T08:23:50;664.93;;;335.03;;
4202;SDS011;2115;51.038;7.006;2023-08-06T08:26:16;655.40;;;349.60;;
4202;SDS011;2115;51.038;7.006;2023-08-06T08:28:42;657.73;;;353.90;;
4202;SDS011;2115;51.038;7.006;2023-08-06T08:31:08;662.57;;;344.47;;
4202;SDS011;2115;51.038;7.006;2023-08-06T08:33:36;658.90;;;341.80;;
4202;SDS011;2115;51.038;7.006;2023-08-06T08:36:03;652.33;;;323.27;;
4202;SDS011;2115;51.038;7.006;2023-08-06T08:38:28;663.10;;;337.60;;
4202;SDS011;2115;51.038;7.006;2023-08-06T08:41:09;652.20;;;322.85;;
4202;SDS011;2115;51.038;7.006;2023-08-06T08:43:35;646.87;;;329.10;;
4202;SDS011;2115;51.038;7.006;2023-08-06T08:46:01;651.27;;;334.53;;
4202;SDS011;2115;51.038;7.006;2023-08-06T08:48:29;657.70;;;349.77;;
4202;SDS011;2115;51.038;7.006;2023-08-06T08:50:54;672.47;;;362.03;;
4202;SDS011;2115;51.038;7.006;2023-08-06T08:53:21;664.33;;;369.23;;
4202;SDS011;2115;51.038;7.006;2023-08-06T08:55:47;665.73;;;383.43;;
4202;SDS011;2115;51.038;7.006;2023-08-06T08:58:13;661.40;;;357.13;;
4202;SDS011;2115;51.038;7.006;2023-08-06T09:00:43;665.23;;;352.63;;
4202;SDS011;2115;51.038;7.006;2023-08-06T09:03:11;668.60;;;372.83;;
4202;SDS011;2115;51.038;7.006;2023-08-06T09:05:39;672.37;;;365.37;;
4202;SDS011;2115;51.038;7.006;2023-08-06T09:08:11;664.80;;;372.77;;
4202;SDS011;2115;51.038;7.006;2023-08-06T09:10:38;666.17;;;374.73;;
4202;SDS011;2115;51.038;7.006;2023-08-06T09:13:04;675.50;;;369.10;;
4202;SDS011;2115;51.038;7.006;2023-08-06T09:15:32;658.33;;;360.43;;
4202;SDS011;2115;51.038;7.006;2023-08-06T09:18:13;657.17;;;343.13;;
4202;SDS011;2115;51.038;7.006;2023-08-06T09:20:39;651.37;;;334.97;;
4202;SDS011;2115;51.038;7.006;2023-08-06T09:23:08;647.57;;;341.57;;
4202;SDS011;2115;51.038;7.006;2023-08-06T09:25:36;649.53;;;331.50;;
4202;SDS011;2115;51.038;7.006;2023-08-06T09:28:03;648.43;;;331.33;;
4202;SDS011;2115;51.038;7.006;2023-08-06T09:30:32;645.20;;;331.00;;
4202;SDS011;2115;51.038;7.006;2023-08-06T09:32:59;649.73;;;337.27;;
4202;SDS011;2115;51.038;7.006;2023-08-06T09:35:27;643.17;;;320.00;;
4202;SDS011;2115;51.038;7.006;2023-08-06T09:37:54;648.80;;;350.27;;
4202;SDS011;2115;51.038;7.006;2023-08-06T09:42:48;669.97;;;370.37;;
4202;SDS011;2115;51.038;7.006;2023-08-06T09:45:16;662.97;;;359.17;;
4202;SDS011;2115;51.038;7.006;2023-08-06T09:47:43;663.20;;;354.70;;
4202;SDS011;2115;51.038;7.006;2023-08-06T09:50:15;680.97;;;382.13;;
4202;SDS011;2115;51.038;7.006;2023-08-06T09:52:43;664.10;;;363.70;;
4202;SDS011;2115;51.038;7.006;2023-08-06T09:55:12;676.30;;;382.37;;
4202;SDS011;2115;51.038;7.006;2023-08-06T09:57:42;681.57;;;415.93;;
4202;SDS011;2115;51.038;7.006;2023-08-06T10:00:10;687.03;;;428.30;;
4202;SDS011;2115;51.038;7.006;2023-08-06T10:02:40;688.53;;;419.67;;
4202;SDS011;2115;51.038;7.006;2023-08-06T10:05:10;691.77;;;436.87;;
4202;SDS011;2115;51.038;7.006;2023-08-06T10:07:35;685.23;;;435.43;;
4202;SDS011;2115;51.038;7.006;2023-08-06T10:10:12;686.27;;;429.47;;
4202;SDS011;2115;51.038;7.006;2023-08-06T10:12:38;689.83;;;395.20;;
4202;SDS011;2115;51.038;7.006;2023-08-06T10:15:11;676.77;;;388.30;;
4202;SDS011;2115;51.038;7.006;2023-08-06T10:17:39;661.70;;;347.40;;
4202;SDS011;2115;51.038;7.006;2023-08-06T10:20:05;646.23;;;313.73;;
4202;SDS011;2115;51.038;7.006;2023-08-06T10:22:33;643.20;;;306.90;;
4202;SDS011;2115;51.038;7.006;2023-08-06T10:24:59;637.77;;;297.23;;
4202;SDS011;2115;51.038;7.006;2023-08-06T10:27:40;630.30;;;303.67;;
4202;SDS011;2115;51.038;7.006;2023-08-06T10:33:00;633.77;;;314.77;;
4202;SDS011;2115;51.038;7.006;2023-08-06T10:35:36;620.27;;;304.57;;
4202;SDS011;2115;51.038;7.006;2023-08-06T11:05:26;615.63;;;252.53;;
4202;SDS011;2115;51.038;7.006;2023-08-06T11:07:52;613.20;;;254.17;;
4202;SDS011;2115;51.038;7.006;2023-08-06T11:10:18;612.63;;;258.60;;
4202;SDS011;2115;51.038;7.006;2023-08-06T11:12:43;613.73;;;255.30;;
4202;SDS011;2115;51.038;7.006;2023-08-06T11:15:09;606.17;;;232.77;;
4202;SDS011;2115;51.038;7.006;2023-08-06T11:17:36;614.60;;;248.20;;
4202;SDS011;2115;51.038;7.006;2023-08-06T11:20:03;606.07;;;235.17;;
4202;SDS011;2115;51.038;7.006;2023-08-06T11:22:29;610.73;;;241.50;;
4202;SDS011;2115;51.038;7.006;2023-08-06T11:24:55;607.80;;;239.97;;
4202;SDS011;2115;51.038;7.006;2023-08-06T11:27:20;611.43;;;250.37;;
4202;SDS011;2115;51.038;7.006;2023-08-06T11:29:46;623.60;;;251.20;;
4202;SDS011;2115;51.038;7.006;2023-08-06T11:32:11;598.97;;;228.33;;
4202;SDS011;2115;51.038;7.006;2023-08-06T11:34:39;608.47;;;232.70;;
4202;SDS011;2115;51.038;7.006;2023-08-06T11:37:06;603.73;;;238.07;;
4202;SDS011;2115;51.038;7.006;2023-08-06T11:39:35;616.07;;;237.13;;
4202;SDS011;2115;51.038;7.006;2023-08-06T11:42:05;612.07;;;238.93;;
4202;SDS011;2115;51.038;7.006;2023-08-06T11:44:31;601.13;;;228.53;;
4202;SDS011;2115;51.038;7.006;2023-08-06T11:46:59;602.70;;;228.93;;
4202;SDS011;2115;51.038;7.006;2023-08-06T11:49:43;607.80;;;237.77;;
4202;SDS011;2115;51.038;7.006;2023-08-06T11:52:20;603.23;;;230.63;;
4202;SDS011;2115;51.038;7.006;2023-08-06T11:55:08;631.73;;;245.93;;
4202;SDS011;2115;51.038;7.006;2023-08-06T11:57:35;612.03;;;238.93;;
4202;SDS011;2115;51.038;7.006;2023-08-06T12:00:02;607.03;;;228.30;;
4202;SDS011;2115;51.038;7.006;2023-08-06T12:02:32;602.40;;;231.40;;
4202;SDS011;2115;51.038;7.006;2023-08-06T12:07:44;611.10;;;231.70;;
4202;SDS011;2115;51.038;7.006;2023-08-06T12:10:11;598.10;;;219.07;;
4202;SDS011;2115;51.038;7.006;2023-08-06T12:12:37;614.77;;;236.97;;
4202;SDS011;2115;51.038;7.006;2023-08-06T12:15:04;612.70;;;235.73;;
4202;SDS011;2115;51.038;7.006;2023-08-06T12:17:31;599.43;;;213.73;;
4202;SDS011;2115;51.038;7.006;2023-08-06T12:19:56;601.00;;;225.20;;
4202;SDS011;2115;51.038;7.006;2023-08-06T12:22:22;598.47;;;221.13;;
4202;SDS011;2115;51.038;7.006;2023-08-06T12:24:47;602.03;;;221.20;;
4202;SDS011;2115;51.038;7.006;2023-08-06T12:27:13;593.37;;;229.93;;
4202;SDS011;2115;51.038;7.006;2023-08-06T12:29:42;598.70;;;222.70;;
4202;SDS011;2115;51.038;7.006;2023-08-06T12:32:09;591.70;;;215.90;;
4202;SDS011;2115;51.038;7.006;2023-08-06T12:34:35;593.80;;;223.63;;
4202;SDS011;2115;51.038;7.006;2023-08-06T12:37:01;589.50;;;214.23;;
4202;SDS011;2115;51.038;7.006;2023-08-06T12:39:27;597.87;;;228.03;;
4202;SDS011;2115;51.038;7.006;2023-08-06T12:41:54;590.67;;;209.77;;
4202;SDS011;2115;51.038;7.006;2023-08-06T12:44:20;590.40;;;213.15;;
4202;SDS011;2115;51.038;7.006;2023-08-06T12:46:46;601.37;;;229.37;;
4202;SDS011;2115;51.038;7.006;2023-08-06T12:49:11;594.80;;;205.90;;
4202;SDS011;2115;51.038;7.006;2023-08-06T12:51:36;596.30;;;214.67;;
4202;SDS011;2115;51.038;7.006;2023-08-06T12:54:02;597.70;;;229.73;;
4202;SDS011;2115;51.038;7.006;2023-08-06T12:56:27;598.60;;;216.87;;
4202;SDS011;2115;51.038;7.006;2023-08-06T12:58:54;599.17;;;225.47;;
4202;SDS011;2115;51.038;7.006;2023-08-06T13:01:19;605.73;;;228.70;;
4202;SDS011;2115;51.038;7.006;2023-08-06T13:03:44;602.00;;;231.53;;
4202;SDS011;2115;51.038;7.006;2023-08-06T13:06:10;600.27;;;218.27;;
4202;SDS011;2115;51.038;7.006;2023-08-06T13:08:36;611.80;;;226.07;;
4202;SDS011;2115;51.038;7.006;2023-08-06T13:11:01;597.90;;;220.40;;
4202;SDS011;2115;51.038;7.006;2023-08-06T13:13:26;602.50;;;223.53;;
4202;SDS011;2115;51.038;7.006;2023-08-06T13:15:52;612.73;;;224.60;;
4202;SDS011;2115;51.038;7.006;2023-08-06T13:18:17;606.00;;;228.80;;
4202;SDS011;2115;51.038;7.006;2023-08-06T13:20:43;633.80;;;287.17;;
4202;SDS011;2115;51.038;7.006;2023-08-06T13:23:08;620.70;;;253.90;;
4202;SDS011;2115;51.038;7.006;2023-08-06T13:25:34;617.00;;;254.20;;
4202;SDS011;2115;51.038;7.006;2023-08-06T13:28:02;640.60;;;260.60;;
4202;SDS011;2115;51.038;7.006;2023-08-06T13:30:28;620.50;;;251.60;;
4202;SDS011;2115;51.038;7.006;2023-08-06T13:32:53;614.93;;;240.00;;
4202;SDS011;2115;51.038;7.006;2023-08-06T13:35:20;623.43;;;233.27;;
4202;SDS011;2115;51.038;7.006;2023-08-06T13:37:46;649.83;;;295.10;;
4202;SDS011;2115;51.038;7.006;2023-08-06T13:40:13;637.45;;;254.60;;
4202;SDS011;2115;51.038;7.006;2023-08-06T13:42:38;638.63;;;272.27;;
4202;SDS011;2115;51.038;7.006;2023-08-06T13:45:04;633.30;;;255.90;;
4202;SDS011;2115;51.038;7.006;2023-08-06T13:47:30;628.83;;;262.20;;
4202;SDS011;2115;51.038;7.006;2023-08-06T13:49:56;627.13;;;256.23;;
4202;SDS011;2115;51.038;7.006;2023-08-06T13:52:21;631.97;;;265.87;;
4202;SDS011;2115;51.038;7.006;2023-08-06T13:54:47;632.40;;;255.83;;
4202;SDS011;2115;51.038;7.006;2023-08-06T13:57:12;627.07;;;243.77;;
4202;SDS011;2115;51.038;7.006;2023-08-06T13:59:38;636.67;;;251.47;;
4202;SDS011;2115;51.038;7.006;2023-08-06T14:02:05;651.90;;;291.77;;
4202;SDS011;2115;51.038;7.006;2023-08-06T14:04:30;633.20;;;272.60;;
4202;SDS011;2115;51.038;7.006;2023-08-06T14:06:56;657.77;;;288.57;;
4202;SDS011;2115;51.038;7.006;2023-08-06T14:09:21;615.47;;;238.23;;
4202;SDS011;2115;51.038;7.006;2023-08-06T14:11:47;640.70;;;267.10;;
4202;SDS011;2115;51.038;7.006;2023-08-06T14:14:12;627.10;;;251.10;;
4202;SDS011;2115;51.038;7.006;2023-08-06T14:16:38;631.50;;;249.53;;
4202;SDS011;2115;51.038;7.006;2023-08-06T14:19:05;643.53;;;261.40;;
4202;SDS011;2115;51.038;7.006;2023-08-06T14:21:34;614.87;;;257.03;;
4202;SDS011;2115;51.038;7.006;2023-08-06T14:24:00;619.17;;;258.00;;
4202;SDS011;2115;51.038;7.006;2023-08-06T14:26:28;624.00;;;255.90;;
4202;SDS011;2115;51.038;7.006;2023-08-06T14:29:23;626.50;;;261.07;;
4202;SDS011;2115;51.038;7.006;2023-08-06T14:35:39;643.47;;;264.43;;
4202;SDS011;2115;51.038;7.006;2023-08-06T14:38:05;620.20;;;261.23;;
4202;SDS011;2115;51.038;7.006;2023-08-06T14:40:37;609.97;;;267.70;;
4202;SDS011;2115;51.038;7.006;2023-08-06T14:43:07;604.97;;;244.00;;
4202;SDS011;2115;51.038;7.006;2023-08-06T14:45:33;617.97;;;245.63;;
4202;SDS011;2115;51.038;7.006;2023-08-06T14:47:58;594.17;;;238.77;;
4202;SDS011;2115;51.038;7.006;2023-08-06T14:50:24;599.20;;;254.17;;
4202;SDS011;2115;51.038;7.006;2023-08-06T14:52:49;600.20;;;248.33;;
4202;SDS011;2115;51.038;7.006;2023-08-06T14:55:25;605.20;;;259.33;;
4202;SDS011;2115;51.038;7.006;2023-08-06T14:57:54;605.50;;;244.77;;
4202;SDS011;2115;51.038;7.006;2023-08-06T15:07:10;614.00;;;249.90;;
4202;SDS011;2115;51.038;7.006;2023-08-06T15:09:43;623.80;;;257.47;;